F/V Zephir III — FO4026 — position and weather

sailwx.info

Track history (hours):
 
Tides and Currents Weather Stations Pressure Air Temp Water Temp Dewpoint Dewpoint Depression Visibility Wind Speed Wind Dir Waves Ship Positions

F/V Zephir III

Last reported at 2018-Jun-24 11:00 UTC. Time now 2018-Jun-24 10:59 UTC.
Position N 44°33' W 001°15'.

Length 12 m.

Type: Fishing. MMSI: 227303130.

Date/timePositionNaut miles runAvg speedWind from/ knotsBaromVisibWave heightAir tempDewpointWater temp
2018-Jun-24 11:00N 44°33' W 001°15'6 9.5
2018-Jun-24 10:19N 44°27' W 001°16'2 7.8
2018-Jun-24 10:00N 44°24' W 001°16'2 3.2
2018-Jun-24 09:29N 44°22' W 001°16'1 1.2
2018-Jun-24 08:56N 44°23' W 001°16'1 2.1
2018-Jun-24 08:30N 44°23' W 001°18'1 2.3
2018-Jun-24 08:00N 44°24' W 001°17'1 1.9
2018-Jun-24 07:31N 44°25' W 001°17'2 3.2
2018-Jun-24 07:01N 44°27' W 001°16'3 6.3
2018-Jun-24 06:30N 44°23' W 001°17'1 1.9
2018-Jun-24 06:00N 44°24' W 001°16'1 1.8
2018-Jun-24 05:28N 44°25' W 001°16'1 1.6
2018-Jun-24 05:00N 44°26' W 001°16'2 3.3
2018-Jun-24 04:30N 44°28' W 001°17'510.1
2018-Jun-24 04:00N 44°33' W 001°17'611.3
2018-Jun-24 03:30N 44°38' W 001°14'4 8.1
2018-Jun-24 03:00N 44°40' W 001°09'0 0.0
2018-Jun-23 12:14N 44°39' W 001°09'2 7.4
2018-Jun-23 12:00N 44°40' W 001°11'510.4
2018-Jun-23 11:30N 44°35' W 001°14'510.3
2018-Jun-23 11:00N 44°31' W 001°17'5 9.5
2018-Jun-23 10:30N 44°26' W 001°16'3 6.3
2018-Jun-23 10:00N 44°23' W 001°16'2 4.4
2018-Jun-23 09:30N 44°25' W 001°17'1 2.2
2018-Jun-23 09:00N 44°26' W 001°17'1 1.1
2018-Jun-23 08:30N 44°26' W 001°17'1 1.6
2018-Jun-23 08:00N 44°27' W 001°17'1 1.8
2018-Jun-23 07:29N 44°28' W 001°17'1 1.6
2018-Jun-23 07:01N 44°29' W 001°17'1 1.5
2018-Jun-23 06:23N 44°30' W 001°17'1 1.8
2018-Jun-23 05:59N 44°29' W 001°17'0 0.4
2018-Jun-23 05:08N 44°29' W 001°17'0 1.8
2018-Jun-23 04:59N 44°29' W 001°17'5 5.4
2018-Jun-23 04:07N 44°34' W 001°17'212.4
2018-Jun-23 03:57N 44°35' W 001°15'511.6
2018-Jun-23 03:30N 44°40' W 001°12'2 0.1
2018-Jun-21 15:19N 44°40' W 001°09'0 0.0
2018-Jun-21 12:37N 44°40' W 001°09'0 0.0
2018-Jun-21 12:19N 44°40' W 001°09'0 0.0
2018-Jun-21 11:10N 44°40' W 001°09'0 0.0
2018-Jun-21 10:58N 44°40' W 001°09'0 0.1
2018-Jun-21 10:20N 44°40' W 001°09'2 7.3
2018-Jun-21 10:00N 44°40' W 001°12'511.1
2018-Jun-21 09:30N 44°34' W 001°14'8 3.0
2018-Jun-21 07:00N 44°27' W 001°17'0 0.2
2018-Jun-21 06:17N 44°27' W 001°17'3 7.2
2018-Jun-21 05:54N 44°30' W 001°16'1 1.9
2018-Jun-21 05:25N 44°29' W 001°17'1 1.8
2018-Jun-21 04:58N 44°28' W 001°17'1 2.0
2018-Jun-21 04:28N 44°29' W 001°17'5 6.8
2018-Jun-21 03:48N 44°34' W 001°17'311.5
2018-Jun-21 03:30N 44°36' W 001°14'5 9.4
2018-Jun-21 03:00N 44°40' W 001°10'1 0.1
2018-Jun-20 13:23N 44°40' W 001°09'0 0.0
2018-Jun-20 12:12N 44°40' W 001°09'1 5.7
2018-Jun-20 12:00N 44°40' W 001°10'3 6.7
2018-Jun-20 11:30N 44°38' W 001°14'4 7.5
2018-Jun-20 11:00N 44°35' W 001°16'5 7.7
2018-Jun-20 10:22N 44°30' W 001°16'1 1.7
2018-Jun-20 10:00N 44°29' W 001°17'1 1.3
2018-Jun-20 09:29N 44°30' W 001°17'0 0.2
2018-Jun-20 09:00N 44°30' W 001°17'1 2.0
2018-Jun-20 08:30N 44°29' W 001°17'0 1.0
2018-Jun-20 08:00N 44°28' W 001°17'1 1.2
2018-Jun-20 07:24N 44°29' W 001°17'0 0.8
2018-Jun-20 06:49N 44°29' W 001°17'0 0.7
2018-Jun-20 06:28N 44°30' W 001°17'1 1.7
2018-Jun-20 06:00N 44°29' W 001°17'1 2.1
2018-Jun-20 05:30N 44°28' W 001°17'2 3.8
2018-Jun-20 04:59N 44°26' W 001°17'1 2.9
2018-Jun-20 04:30N 44°27' W 001°17'610.3
2018-Jun-20 03:57N 44°33' W 001°17'4 8.4
2018-Jun-20 03:30N 44°36' W 001°14'5 9.8
2018-Jun-20 03:00N 44°40' W 001°11'2 0.1
2018-Jun-19 13:52N 44°40' W 001°09'0 0.1
2018-Jun-19 13:26N 44°40' W 001°09'3 6.2
2018-Jun-19 13:00N 44°39' W 001°13'4 7.6
2018-Jun-19 12:30N 44°36' W 001°14'4 7.6
2018-Jun-19 11:57N 44°32' W 001°18'3 7.2
2018-Jun-19 11:30N 44°29' W 001°17'2 3.2
2018-Jun-19 11:00N 44°28' W 001°17'2 1.5
2018-Jun-19 09:52N 44°26' W 001°17'2 1.7
2018-Jun-19 08:27N 44°28' W 001°17'2 4.9
2018-Jun-19 08:00N 44°26' W 001°17'1 1.9
2018-Jun-19 07:28N 44°27' W 001°17'1 1.6
2018-Jun-19 07:00N 44°28' W 001°16'1 1.9
2018-Jun-19 06:30N 44°29' W 001°16'2 4.4
2018-Jun-19 06:00N 44°27' W 001°17'1 1.3
2018-Jun-19 05:25N 44°26' W 001°17'2 4.4
2018-Jun-19 05:00N 44°28' W 001°18'6 9.9
2018-Jun-19 04:26N 44°33' W 001°17'3 7.9
2018-Jun-19 03:59N 44°36' W 001°14'4 8.1
2018-Jun-19 03:30N 44°40' W 001°12'2 0.1
2018-Jun-18 13:27N 44°40' W 001°09'0 0.0
2018-Jun-18 12:55N 44°40' W 001°09'3 6.6
2018-Jun-18 12:30N 44°39' W 001°13'4 7.8
2018-Jun-18 12:00N 44°36' W 001°14'7 2.2
2018-Jun-18 08:46N 44°29' W 001°16'2 7.0
2018-Jun-18 08:28N 44°27' W 001°17'7 1.9
2018-Jun-18 04:47N 44°34' W 001°17'2 8.1
2018-Jun-18 04:30N 44°35' W 001°15'4 7.8
2018-Jun-18 04:00N 44°39' W 001°13'3 3.7
2018-Jun-18 03:10N 44°39' W 001°09'0 0.0
2018-Jun-17 14:10N 44°40' W 001°09'0 0.0
2018-Jun-17 13:16N 44°40' W 001°09'2 6.3
2018-Jun-17 13:00N 44°40' W 001°11'4 8.5
2018-Jun-17 12:30N 44°37' W 001°14'4 7.4
2018-Jun-17 12:00N 44°34' W 001°18'9 2.6
2018-Jun-17 08:37N 44°25' W 001°17'0 1.7
2018-Jun-17 08:29N 44°25' W 001°17'4 1.0
2018-Jun-17 04:43N 44°29' W 001°17'510.2
2018-Jun-17 04:15N 44°33' W 001°17'2 8.9
2018-Jun-17 04:00N 44°35' W 001°15'4 8.1
2018-Jun-17 03:30N 44°39' W 001°13'3 6.1
2018-Jun-17 03:00N 44°40' W 001°09'0 0.0
2018-Jun-16 13:38N 44°40' W 001°09'0 0.0
2018-Jun-16 13:11N 44°40' W 001°09'1 7.0
2018-Jun-16 13:00N 44°40' W 001°11'5 9.9
2018-Jun-16 12:30N 44°36' W 001°14'3 6.5
2018-Jun-16 12:00N 44°34' W 001°18'0 0.2
2018-Jun-16 11:30N 44°34' W 001°18'1 0.2
2018-Jun-16 04:23N 44°34' W 001°17'3 8.4
2018-Jun-16 04:00N 44°36' W 001°14'4 7.4
2018-Jun-16 03:30N 44°40' W 001°12'2 0.2
2018-Jun-15 12:50N 44°40' W 001°09'0 0.4
2018-Jun-15 12:30N 44°40' W 001°09'4 7.7
2018-Jun-15 11:58N 44°38' W 001°14'4 8.2
2018-Jun-15 11:27N 44°34' W 001°18'9 1.7
2018-Jun-15 06:18N 44°25' W 001°17'1 1.6
2018-Jun-15 05:32N 44°27' W 001°17'0 1.1
2018-Jun-15 05:17N 44°27' W 001°17'1 4.3
2018-Jun-15 05:00N 44°28' W 001°17'5 9.5
2018-Jun-15 04:27N 44°33' W 001°17'4 8.2
2018-Jun-15 04:00N 44°36' W 001°14'4 7.5
2018-Jun-15 03:30N 44°40' W 001°12'2 0.2
2018-Jun-14 13:12N 44°40' W 001°09'0 0.1
2018-Jun-14 12:49N 44°40' W 001°09'2 8.1
2018-Jun-14 12:30N 44°39' W 001°12'510.7
2018-Jun-14 12:00N 44°34' W 001°14'  
Track history (hours):
 
Tides and Currents Weather Stations Pressure Air Temp Water Temp Dewpoint Dewpoint Depression Visibility Wind Speed Wind Dir Waves Ship Positions

F/V Zephir III

Last reported at 2018-Jun-24 11:00 UTC. Time now 2018-Jun-24 10:59 UTC.
Position N 44°33' W 001°15'.

Length 12 m.

Type: Fishing. MMSI: 227303130.

Date/timePositionNaut miles runAvg speedWind from/ knotsBaromVisibWave heightAir tempDewpointWater temp
2018-Jun-24 11:00N 44°33' W 001°15'6 9.5
2018-Jun-24 10:19N 44°27' W 001°16'2 7.8
2018-Jun-24 10:00N 44°24' W 001°16'2 3.2
2018-Jun-24 09:29N 44°22' W 001°16'1 1.2
2018-Jun-24 08:56N 44°23' W 001°16'1 2.1
2018-Jun-24 08:30N 44°23' W 001°18'1 2.3
2018-Jun-24 08:00N 44°24' W 001°17'1 1.9
2018-Jun-24 07:31N 44°25' W 001°17'2 3.2
2018-Jun-24 07:01N 44°27' W 001°16'3 6.3
2018-Jun-24 06:30N 44°23' W 001°17'1 1.9
2018-Jun-24 06:00N 44°24' W 001°16'1 1.8
2018-Jun-24 05:28N 44°25' W 001°16'1 1.6
2018-Jun-24 05:00N 44°26' W 001°16'2 3.3
2018-Jun-24 04:30N 44°28' W 001°17'510.1
2018-Jun-24 04:00N 44°33' W 001°17'611.3
2018-Jun-24 03:30N 44°38' W 001°14'4 8.1
2018-Jun-24 03:00N 44°40' W 001°09'0 0.0
2018-Jun-23 12:14N 44°39' W 001°09'2 7.4
2018-Jun-23 12:00N 44°40' W 001°11'510.4
2018-Jun-23 11:30N 44°35' W 001°14'510.3
2018-Jun-23 11:00N 44°31' W 001°17'5 9.5
2018-Jun-23 10:30N 44°26' W 001°16'3 6.3
2018-Jun-23 10:00N 44°23' W 001°16'2 4.4
2018-Jun-23 09:30N 44°25' W 001°17'1 2.2
2018-Jun-23 09:00N 44°26' W 001°17'1 1.1
2018-Jun-23 08:30N 44°26' W 001°17'1 1.6
2018-Jun-23 08:00N 44°27' W 001°17'1 1.8
2018-Jun-23 07:29N 44°28' W 001°17'1 1.6
2018-Jun-23 07:01N 44°29' W 001°17'1 1.5
2018-Jun-23 06:23N 44°30' W 001°17'1 1.8
2018-Jun-23 05:59N 44°29' W 001°17'0 0.4
2018-Jun-23 05:08N 44°29' W 001°17'0 1.8
2018-Jun-23 04:59N 44°29' W 001°17'5 5.4
2018-Jun-23 04:07N 44°34' W 001°17'212.4
2018-Jun-23 03:57N 44°35' W 001°15'511.6
2018-Jun-23 03:30N 44°40' W 001°12'2 0.1
2018-Jun-21 15:19N 44°40' W 001°09'0 0.0
2018-Jun-21 12:37N 44°40' W 001°09'0 0.0
2018-Jun-21 12:19N 44°40' W 001°09'0 0.0
2018-Jun-21 11:10N 44°40' W 001°09'0 0.0
2018-Jun-21 10:58N 44°40' W 001°09'0 0.1
2018-Jun-21 10:20N 44°40' W 001°09'2 7.3
2018-Jun-21 10:00N 44°40' W 001°12'511.1
2018-Jun-21 09:30N 44°34' W 001°14'8 3.0
2018-Jun-21 07:00N 44°27' W 001°17'0 0.2
2018-Jun-21 06:17N 44°27' W 001°17'3 7.2
2018-Jun-21 05:54N 44°30' W 001°16'1 1.9
2018-Jun-21 05:25N 44°29' W 001°17'1 1.8
2018-Jun-21 04:58N 44°28' W 001°17'1 2.0
2018-Jun-21 04:28N 44°29' W 001°17'5 6.8
2018-Jun-21 03:48N 44°34' W 001°17'311.5
2018-Jun-21 03:30N 44°36' W 001°14'5 9.4
2018-Jun-21 03:00N 44°40' W 001°10'1 0.1
2018-Jun-20 13:23N 44°40' W 001°09'0 0.0
2018-Jun-20 12:12N 44°40' W 001°09'1 5.7
2018-Jun-20 12:00N 44°40' W 001°10'3 6.7
2018-Jun-20 11:30N 44°38' W 001°14'4 7.5
2018-Jun-20 11:00N 44°35' W 001°16'5 7.7
2018-Jun-20 10:22N 44°30' W 001°16'1 1.7
2018-Jun-20 10:00N 44°29' W 001°17'1 1.3
2018-Jun-20 09:29N 44°30' W 001°17'0 0.2
2018-Jun-20 09:00N 44°30' W 001°17'1 2.0
2018-Jun-20 08:30N 44°29' W 001°17'0 1.0
2018-Jun-20 08:00N 44°28' W 001°17'1 1.2
2018-Jun-20 07:24N 44°29' W 001°17'0 0.8
2018-Jun-20 06:49N 44°29' W 001°17'0 0.7
2018-Jun-20 06:28N 44°30' W 001°17'1 1.7
2018-Jun-20 06:00N 44°29' W 001°17'1 2.1
2018-Jun-20 05:30N 44°28' W 001°17'2 3.8
2018-Jun-20 04:59N 44°26' W 001°17'1 2.9
2018-Jun-20 04:30N 44°27' W 001°17'610.3
2018-Jun-20 03:57N 44°33' W 001°17'4 8.4
2018-Jun-20 03:30N 44°36' W 001°14'5 9.8
2018-Jun-20 03:00N 44°40' W 001°11'2 0.1
2018-Jun-19 13:52N 44°40' W 001°09'0 0.1
2018-Jun-19 13:26N 44°40' W 001°09'3 6.2
2018-Jun-19 13:00N 44°39' W 001°13'4 7.6
2018-Jun-19 12:30N 44°36' W 001°14'4 7.6
2018-Jun-19 11:57N 44°32' W 001°18'3 7.2
2018-Jun-19 11:30N 44°29' W 001°17'2 3.2
2018-Jun-19 11:00N 44°28' W 001°17'2 1.5
2018-Jun-19 09:52N 44°26' W 001°17'2 1.7
2018-Jun-19 08:27N 44°28' W 001°17'2 4.9
2018-Jun-19 08:00N 44°26' W 001°17'1 1.9
2018-Jun-19 07:28N 44°27' W 001°17'1 1.6
2018-Jun-19 07:00N 44°28' W 001°16'1 1.9
2018-Jun-19 06:30N 44°29' W 001°16'2 4.4
2018-Jun-19 06:00N 44°27' W 001°17'1 1.3
2018-Jun-19 05:25N 44°26' W 001°17'2 4.4
2018-Jun-19 05:00N 44°28' W 001°18'6 9.9
2018-Jun-19 04:26N 44°33' W 001°17'3 7.9
2018-Jun-19 03:59N 44°36' W 001°14'4 8.1
2018-Jun-19 03:30N 44°40' W 001°12'2 0.1
2018-Jun-18 13:27N 44°40' W 001°09'0 0.0
2018-Jun-18 12:55N 44°40' W 001°09'3 6.6
2018-Jun-18 12:30N 44°39' W 001°13'4 7.8
2018-Jun-18 12:00N 44°36' W 001°14'7 2.2
2018-Jun-18 08:46N 44°29' W 001°16'2 7.0
2018-Jun-18 08:28N 44°27' W 001°17'7 1.9
2018-Jun-18 04:47N 44°34' W 001°17'2 8.1
2018-Jun-18 04:30N 44°35' W 001°15'4 7.8
2018-Jun-18 04:00N 44°39' W 001°13'3 3.7
2018-Jun-18 03:10N 44°39' W 001°09'0 0.0
2018-Jun-17 14:10N 44°40' W 001°09'0 0.0
2018-Jun-17 13:16N 44°40' W 001°09'2 6.3
2018-Jun-17 13:00N 44°40' W 001°11'4 8.5
2018-Jun-17 12:30N 44°37' W 001°14'4 7.4
2018-Jun-17 12:00N 44°34' W 001°18'9 2.6
2018-Jun-17 08:37N 44°25' W 001°17'0 1.7
2018-Jun-17 08:29N 44°25' W 001°17'4 1.0
2018-Jun-17 04:43N 44°29' W 001°17'510.2
2018-Jun-17 04:15N 44°33' W 001°17'2 8.9
2018-Jun-17 04:00N 44°35' W 001°15'4 8.1
2018-Jun-17 03:30N 44°39' W 001°13'3 6.1
2018-Jun-17 03:00N 44°40' W 001°09'0 0.0
2018-Jun-16 13:38N 44°40' W 001°09'0 0.0
2018-Jun-16 13:11N 44°40' W 001°09'1 7.0
2018-Jun-16 13:00N 44°40' W 001°11'5 9.9
2018-Jun-16 12:30N 44°36' W 001°14'3 6.5
2018-Jun-16 12:00N 44°34' W 001°18'0 0.2
2018-Jun-16 11:30N 44°34' W 001°18'1 0.2
2018-Jun-16 04:23N 44°34' W 001°17'3 8.4
2018-Jun-16 04:00N 44°36' W 001°14'4 7.4
2018-Jun-16 03:30N 44°40' W 001°12'2 0.2
2018-Jun-15 12:50N 44°40' W 001°09'0 0.4
2018-Jun-15 12:30N 44°40' W 001°09'4 7.7
2018-Jun-15 11:58N 44°38' W 001°14'4 8.2
2018-Jun-15 11:27N 44°34' W 001°18'9 1.7
2018-Jun-15 06:18N 44°25' W 001°17'1 1.6
2018-Jun-15 05:32N 44°27' W 001°17'0 1.1
2018-Jun-15 05:17N 44°27' W 001°17'1 4.3
2018-Jun-15 05:00N 44°28' W 001°17'5 9.5
2018-Jun-15 04:27N 44°33' W 001°17'4 8.2
2018-Jun-15 04:00N 44°36' W 001°14'4 7.5
2018-Jun-15 03:30N 44°40' W 001°12'2 0.2
2018-Jun-14 13:12N 44°40' W 001°09'0 0.1
2018-Jun-14 12:49N 44°40' W 001°09'2 8.1
2018-Jun-14 12:30N 44°39' W 001°12'510.7
2018-Jun-14 12:00N 44°34' W 001°14'  

Dump ship's entire track history